sensor_id;sensor_type;location;lat;lon;timestamp;P1;durP1;ratioP1;P2;durP2;ratioP2
57752;SDS011;43583;53.132;6.574;2023-11-19T00:02:18;36.35;;;11.93;;
57752;SDS011;43583;53.132;6.574;2023-11-19T00:04:44;41.15;;;13.65;;
57752;SDS011;43583;53.132;6.574;2023-11-19T00:07:09;39.42;;;13.52;;
57752;SDS011;43583;53.132;6.574;2023-11-19T00:09:37;43.10;;;11.80;;
57752;SDS011;43583;53.132;6.574;2023-11-19T00:12:06;38.53;;;11.70;;
57752;SDS011;43583;53.132;6.574;2023-11-19T00:14:32;39.03;;;12.25;;
57752;SDS011;43583;53.132;6.574;2023-11-19T00:16:59;38.78;;;11.43;;
57752;SDS011;43583;53.132;6.574;2023-11-19T00:19:25;38.92;;;11.93;;
57752;SDS011;43583;53.132;6.574;2023-11-19T00:21:51;37.03;;;10.80;;
57752;SDS011;43583;53.132;6.574;2023-11-19T00:24:17;35.97;;;9.63;;
57752;SDS011;43583;53.132;6.574;2023-11-19T00:26:43;32.70;;;10.35;;
57752;SDS011;43583;53.132;6.574;2023-11-19T00:29:09;30.17;;;10.32;;
57752;SDS011;43583;53.132;6.574;2023-11-19T00:31:35;33.15;;;9.90;;
57752;SDS011;43583;53.132;6.574;2023-11-19T00:34:00;31.40;;;8.70;;
57752;SDS011;43583;53.132;6.574;2023-11-19T00:36:27;29.40;;;7.40;;
57752;SDS011;43583;53.132;6.574;2023-11-19T00:38:53;28.27;;;7.78;;
57752;SDS011;43583;53.132;6.574;2023-11-19T00:41:19;25.67;;;6.43;;
57752;SDS011;43583;53.132;6.574;2023-11-19T00:43:44;34.03;;;7.20;;
57752;SDS011;43583;53.132;6.574;2023-11-19T00:46:10;31.40;;;7.63;;
57752;SDS011;43583;53.132;6.574;2023-11-19T00:48:36;30.08;;;6.85;;
57752;SDS011;43583;53.132;6.574;2023-11-19T00:51:02;26.27;;;6.25;;
57752;SDS011;43583;53.132;6.574;2023-11-19T00:53:29;24.25;;;5.47;;
57752;SDS011;43583;53.132;6.574;2023-11-19T00:55:55;27.27;;;5.22;;
57752;SDS011;43583;53.132;6.574;2023-11-19T00:58:21;25.55;;;4.65;;
57752;SDS011;43583;53.132;6.574;2023-11-19T01:00:46;30.17;;;4.22;;
57752;SDS011;43583;53.132;6.574;2023-11-19T01:03:12;23.60;;;5.82;;
57752;SDS011;43583;53.132;6.574;2023-11-19T01:05:38;24.77;;;4.82;;
57752;SDS011;43583;53.132;6.574;2023-11-19T01:08:04;24.08;;;4.55;;
57752;SDS011;43583;53.132;6.574;2023-11-19T01:10:30;30.98;;;4.53;;
57752;SDS011;43583;53.132;6.574;2023-11-19T01:12:56;24.98;;;3.33;;
57752;SDS011;43583;53.132;6.574;2023-11-19T01:15:22;17.83;;;3.72;;
57752;SDS011;43583;53.132;6.574;2023-11-19T01:17:48;22.48;;;4.30;;
57752;SDS011;43583;53.132;6.574;2023-11-19T01:20:13;30.75;;;3.28;;
57752;SDS011;43583;53.132;6.574;2023-11-19T01:22:40;21.10;;;2.85;;
57752;SDS011;43583;53.132;6.574;2023-11-19T01:25:06;20.50;;;3.22;;
57752;SDS011;43583;53.132;6.574;2023-11-19T01:27:32;19.48;;;3.17;;
57752;SDS011;43583;53.132;6.574;2023-11-19T01:30:02;25.17;;;2.72;;
57752;SDS011;43583;53.132;6.574;2023-11-19T01:32:34;20.00;;;3.00;;
57752;SDS011;43583;53.132;6.574;2023-11-19T01:35:01;22.90;;;3.20;;
57752;SDS011;43583;53.132;6.574;2023-11-19T01:37:29;33.15;;;3.55;;
57752;SDS011;43583;53.132;6.574;2023-11-19T01:39:54;25.20;;;3.38;;
57752;SDS011;43583;53.132;6.574;2023-11-19T01:42:20;27.25;;;3.00;;
57752;SDS011;43583;53.132;6.574;2023-11-19T01:45:20;23.65;;;2.75;;
57752;SDS011;43583;53.132;6.574;2023-11-19T01:47:46;30.77;;;2.95;;
57752;SDS011;43583;53.132;6.574;2023-11-19T01:50:12;26.65;;;2.55;;
57752;SDS011;43583;53.132;6.574;2023-11-19T01:52:37;21.38;;;2.20;;
57752;SDS011;43583;53.132;6.574;2023-11-19T01:55:03;28.77;;;2.67;;
57752;SDS011;43583;53.132;6.574;2023-11-19T01:57:30;25.70;;;3.47;;
57752;SDS011;43583;53.132;6.574;2023-11-19T01:59:55;26.70;;;3.17;;
57752;SDS011;43583;53.132;6.574;2023-11-19T02:02:21;19.20;;;3.15;;
57752;SDS011;43583;53.132;6.574;2023-11-19T02:04:47;21.40;;;3.20;;
57752;SDS011;43583;53.132;6.574;2023-11-19T02:07:14;27.02;;;2.90;;
57752;SDS011;43583;53.132;6.574;2023-11-19T02:09:43;25.77;;;3.40;;
57752;SDS011;43583;53.132;6.574;2023-11-19T02:12:09;24.55;;;2.40;;
57752;SDS011;43583;53.132;6.574;2023-11-19T02:14:37;25.00;;;3.40;;
57752;SDS011;43583;53.132;6.574;2023-11-19T02:17:02;23.40;;;2.38;;
57752;SDS011;43583;53.132;6.574;2023-11-19T02:19:28;25.75;;;2.90;;
57752;SDS011;43583;53.132;6.574;2023-11-19T02:21:54;22.88;;;3.65;;
57752;SDS011;43583;53.132;6.574;2023-11-19T02:24:21;28.60;;;2.90;;
57752;SDS011;43583;53.132;6.574;2023-11-19T02:26:52;27.80;;;2.67;;
57752;SDS011;43583;53.132;6.574;2023-11-19T02:29:27;20.30;;;3.97;;
57752;SDS011;43583;53.132;6.574;2023-11-19T02:31:53;20.75;;;2.92;;
57752;SDS011;43583;53.132;6.574;2023-11-19T02:34:20;20.23;;;2.40;;
57752;SDS011;43583;53.132;6.574;2023-11-19T02:36:46;18.58;;;2.92;;
57752;SDS011;43583;53.132;6.574;2023-11-19T02:39:12;21.20;;;3.25;;
57752;SDS011;43583;53.132;6.574;2023-11-19T02:41:38;33.78;;;3.40;;
57752;SDS011;43583;53.132;6.574;2023-11-19T02:44:05;26.00;;;2.60;;
57752;SDS011;43583;53.132;6.574;2023-11-19T02:46:33;36.00;;;4.50;;
57752;SDS011;43583;53.132;6.574;2023-11-19T02:48:59;40.63;;;4.72;;
57752;SDS011;43583;53.132;6.574;2023-11-19T02:51:24;35.53;;;3.85;;
57752;SDS011;43583;53.132;6.574;2023-11-19T02:53:50;23.40;;;3.42;;
57752;SDS011;43583;53.132;6.574;2023-11-19T02:56:15;27.50;;;3.55;;
57752;SDS011;43583;53.132;6.574;2023-11-19T02:58:50;19.98;;;3.35;;
57752;SDS011;43583;53.132;6.574;2023-11-19T03:01:21;30.90;;;3.17;;
57752;SDS011;43583;53.132;6.574;2023-11-19T03:03:59;36.53;;;2.50;;
57752;SDS011;43583;53.132;6.574;2023-11-19T03:06:26;27.73;;;3.15;;
57752;SDS011;43583;53.132;6.574;2023-11-19T03:08:54;19.48;;;2.75;;
57752;SDS011;43583;53.132;6.574;2023-11-19T03:11:19;24.75;;;3.05;;
57752;SDS011;43583;53.132;6.574;2023-11-19T03:13:45;25.48;;;2.58;;
57752;SDS011;43583;53.132;6.574;2023-11-19T03:16:11;16.23;;;2.33;;
57752;SDS011;43583;53.132;6.574;2023-11-19T03:18:37;26.67;;;2.53;;
57752;SDS011;43583;53.132;6.574;2023-11-19T03:21:05;24.92;;;2.95;;
57752;SDS011;43583;53.132;6.574;2023-11-19T03:23:33;26.33;;;3.22;;
57752;SDS011;43583;53.132;6.574;2023-11-19T03:25:59;23.42;;;2.80;;
57752;SDS011;43583;53.132;6.574;2023-11-19T03:28:28;20.80;;;2.92;;
57752;SDS011;43583;53.132;6.574;2023-11-19T03:30:54;21.70;;;3.30;;
57752;SDS011;43583;53.132;6.574;2023-11-19T03:33:20;29.10;;;4.78;;
57752;SDS011;43583;53.132;6.574;2023-11-19T03:35:45;24.80;;;3.08;;
57752;SDS011;43583;53.132;6.574;2023-11-19T03:38:11;24.42;;;3.10;;
57752;SDS011;43583;53.132;6.574;2023-11-19T03:40:36;27.27;;;3.63;;
57752;SDS011;43583;53.132;6.574;2023-11-19T03:43:03;27.15;;;3.10;;
57752;SDS011;43583;53.132;6.574;2023-11-19T03:45:29;29.13;;;3.55;;
57752;SDS011;43583;53.132;6.574;2023-11-19T03:47:55;31.40;;;3.53;;
57752;SDS011;43583;53.132;6.574;2023-11-19T03:50:20;21.65;;;2.42;;
57752;SDS011;43583;53.132;6.574;2023-11-19T03:52:46;29.13;;;3.53;;
57752;SDS011;43583;53.132;6.574;2023-11-19T03:55:12;23.98;;;2.42;;
57752;SDS011;43583;53.132;6.574;2023-11-19T03:57:38;23.80;;;2.90;;
57752;SDS011;43583;53.132;6.574;2023-11-19T04:00:04;17.02;;;2.83;;
57752;SDS011;43583;53.132;6.574;2023-11-19T04:02:35;30.02;;;3.08;;
57752;SDS011;43583;53.132;6.574;2023-11-19T04:05:02;20.02;;;3.80;;
57752;SDS011;43583;53.132;6.574;2023-11-19T04:07:29;28.83;;;3.78;;
57752;SDS011;43583;53.132;6.574;2023-11-19T04:09:54;30.52;;;3.00;;
57752;SDS011;43583;53.132;6.574;2023-11-19T04:12:20;30.35;;;3.50;;
57752;SDS011;43583;53.132;6.574;2023-11-19T04:14:47;30.75;;;2.80;;
57752;SDS011;43583;53.132;6.574;2023-11-19T04:17:12;25.58;;;3.22;;
57752;SDS011;43583;53.132;6.574;2023-11-19T04:19:38;32.65;;;3.88;;
57752;SDS011;43583;53.132;6.574;2023-11-19T04:22:06;24.67;;;2.80;;
57752;SDS011;43583;53.132;6.574;2023-11-19T04:24:32;27.92;;;4.43;;
57752;SDS011;43583;53.132;6.574;2023-11-19T04:26:58;31.60;;;3.30;;
57752;SDS011;43583;53.132;6.574;2023-11-19T04:29:23;37.17;;;3.47;;
57752;SDS011;43583;53.132;6.574;2023-11-19T04:31:49;21.63;;;3.55;;
57752;SDS011;43583;53.132;6.574;2023-11-19T04:34:15;28.88;;;3.30;;
57752;SDS011;43583;53.132;6.574;2023-11-19T04:36:40;28.75;;;2.88;;
57752;SDS011;43583;53.132;6.574;2023-11-19T04:39:06;32.30;;;3.67;;
57752;SDS011;43583;53.132;6.574;2023-11-19T04:41:45;19.63;;;3.38;;
57752;SDS011;43583;53.132;6.574;2023-11-19T04:44:14;22.13;;;2.95;;
57752;SDS011;43583;53.132;6.574;2023-11-19T04:46:41;34.03;;;3.17;;
57752;SDS011;43583;53.132;6.574;2023-11-19T04:49:08;23.52;;;3.85;;
57752;SDS011;43583;53.132;6.574;2023-11-19T04:51:42;27.15;;;3.17;;
57752;SDS011;43583;53.132;6.574;2023-11-19T04:54:09;29.02;;;4.13;;
57752;SDS011;43583;53.132;6.574;2023-11-19T04:56:35;31.65;;;4.18;;
57752;SDS011;43583;53.132;6.574;2023-11-19T04:59:05;30.33;;;3.60;;
57752;SDS011;43583;53.132;6.574;2023-11-19T05:01:31;36.75;;;3.88;;
57752;SDS011;43583;53.132;6.574;2023-11-19T05:03:58;34.53;;;3.97;;
57752;SDS011;43583;53.132;6.574;2023-11-19T05:06:27;36.45;;;3.47;;
57752;SDS011;43583;53.132;6.574;2023-11-19T05:08:58;29.80;;;3.55;;
57752;SDS011;43583;53.132;6.574;2023-11-19T05:11:32;28.90;;;3.30;;
57752;SDS011;43583;53.132;6.574;2023-11-19T05:13:59;32.97;;;2.40;;
57752;SDS011;43583;53.132;6.574;2023-11-19T05:16:25;23.45;;;2.35;;
57752;SDS011;43583;53.132;6.574;2023-11-19T05:18:51;24.52;;;3.67;;
57752;SDS011;43583;53.132;6.574;2023-11-19T05:21:16;32.67;;;4.72;;
57752;SDS011;43583;53.132;6.574;2023-11-19T05:23:42;30.25;;;2.97;;
57752;SDS011;43583;53.132;6.574;2023-11-19T05:26:08;30.13;;;4.85;;
57752;SDS011;43583;53.132;6.574;2023-11-19T05:28:35;27.88;;;4.40;;
57752;SDS011;43583;53.132;6.574;2023-11-19T05:31:04;44.63;;;4.18;;
57752;SDS011;43583;53.132;6.574;2023-11-19T05:33:30;20.25;;;3.80;;
57752;SDS011;43583;53.132;6.574;2023-11-19T05:35:56;34.30;;;3.15;;
57752;SDS011;43583;53.132;6.574;2023-11-19T05:38:22;27.58;;;3.30;;
57752;SDS011;43583;53.132;6.574;2023-11-19T05:40:48;32.65;;;4.03;;
57752;SDS011;43583;53.132;6.574;2023-11-19T05:43:14;27.80;;;3.90;;
57752;SDS011;43583;53.132;6.574;2023-11-19T05:45:41;28.98;;;4.07;;
57752;SDS011;43583;53.132;6.574;2023-11-19T05:48:07;24.40;;;3.58;;
57752;SDS011;43583;53.132;6.574;2023-11-19T05:50:34;35.40;;;4.60;;
57752;SDS011;43583;53.132;6.574;2023-11-19T05:53:00;24.33;;;4.22;;
57752;SDS011;43583;53.132;6.574;2023-11-19T05:55:26;32.17;;;4.57;;
57752;SDS011;43583;53.132;6.574;2023-11-19T05:57:53;25.92;;;3.75;;
57752;SDS011;43583;53.132;6.574;2023-11-19T06:00:19;38.28;;;4.13;;
57752;SDS011;43583;53.132;6.574;2023-11-19T06:02:44;21.98;;;3.45;;
57752;SDS011;43583;53.132;6.574;2023-11-19T06:05:10;37.00;;;3.83;;
57752;SDS011;43583;53.132;6.574;2023-11-19T06:07:36;33.58;;;4.35;;
57752;SDS011;43583;53.132;6.574;2023-11-19T06:10:04;22.38;;;2.88;;
57752;SDS011;43583;53.132;6.574;2023-11-19T06:12:30;25.23;;;2.95;;
57752;SDS011;43583;53.132;6.574;2023-11-19T06:14:57;30.25;;;4.13;;
57752;SDS011;43583;53.132;6.574;2023-11-19T06:17:22;36.13;;;4.20;;
57752;SDS011;43583;53.132;6.574;2023-11-19T06:19:48;34.25;;;3.63;;
57752;SDS011;43583;53.132;6.574;2023-11-19T06:22:13;26.95;;;4.30;;
57752;SDS011;43583;53.132;6.574;2023-11-19T06:24:39;27.13;;;2.97;;
57752;SDS011;43583;53.132;6.574;2023-11-19T06:27:04;24.30;;;2.53;;
57752;SDS011;43583;53.132;6.574;2023-11-19T06:29:30;31.38;;;3.20;;
57752;SDS011;43583;53.132;6.574;2023-11-19T06:31:56;21.50;;;3.22;;
57752;SDS011;43583;53.132;6.574;2023-11-19T06:34:22;37.00;;;4.32;;
57752;SDS011;43583;53.132;6.574;2023-11-19T06:36:48;25.05;;;2.83;;
57752;SDS011;43583;53.132;6.574;2023-11-19T06:39:13;23.95;;;2.92;;
57752;SDS011;43583;53.132;6.574;2023-11-19T06:41:44;25.73;;;3.65;;
57752;SDS011;43583;53.132;6.574;2023-11-19T06:44:10;36.85;;;4.65;;
57752;SDS011;43583;53.132;6.574;2023-11-19T06:46:35;25.05;;;3.88;;
57752;SDS011;43583;53.132;6.574;2023-11-19T06:49:01;27.45;;;3.42;;
57752;SDS011;43583;53.132;6.574;2023-11-19T06:51:27;23.17;;;4.32;;
57752;SDS011;43583;53.132;6.574;2023-11-19T06:53:52;15.73;;;2.45;;
57752;SDS011;43583;53.132;6.574;2023-11-19T06:56:19;23.00;;;3.45;;
57752;SDS011;43583;53.132;6.574;2023-11-19T06:58:49;26.20;;;3.53;;
57752;SDS011;43583;53.132;6.574;2023-11-19T07:01:15;24.60;;;3.17;;
57752;SDS011;43583;53.132;6.574;2023-11-19T07:03:41;22.10;;;3.35;;
57752;SDS011;43583;53.132;6.574;2023-11-19T07:06:07;37.95;;;4.90;;
57752;SDS011;43583;53.132;6.574;2023-11-19T07:08:33;23.75;;;3.25;;
57752;SDS011;43583;53.132;6.574;2023-11-19T07:10:59;24.20;;;3.40;;
57752;SDS011;43583;53.132;6.574;2023-11-19T07:13:25;23.55;;;3.28;;
57752;SDS011;43583;53.132;6.574;2023-11-19T07:15:52;25.30;;;3.03;;
57752;SDS011;43583;53.132;6.574;2023-11-19T07:18:18;29.50;;;3.42;;
57752;SDS011;43583;53.132;6.574;2023-11-19T07:20:47;25.60;;;2.58;;
57752;SDS011;43583;53.132;6.574;2023-11-19T07:23:13;26.77;;;4.28;;
57752;SDS011;43583;53.132;6.574;2023-11-19T07:25:41;24.95;;;3.33;;
57752;SDS011;43583;53.132;6.574;2023-11-19T07:28:08;23.75;;;3.97;;
57752;SDS011;43583;53.132;6.574;2023-11-19T07:30:35;23.73;;;2.63;;
57752;SDS011;43583;53.132;6.574;2023-11-19T07:33:00;23.52;;;3.10;;
57752;SDS011;43583;53.132;6.574;2023-11-19T07:35:28;22.38;;;2.80;;
57752;SDS011;43583;53.132;6.574;2023-11-19T07:37:55;31.38;;;3.95;;
57752;SDS011;43583;53.132;6.574;2023-11-19T07:40:22;21.27;;;3.03;;
57752;SDS011;43583;53.132;6.574;2023-11-19T07:42:48;23.17;;;3.60;;
57752;SDS011;43583;53.132;6.574;2023-11-19T07:45:14;23.10;;;2.60;;
57752;SDS011;43583;53.132;6.574;2023-11-19T07:47:40;19.17;;;2.72;;
57752;SDS011;43583;53.132;6.574;2023-11-19T07:50:06;23.60;;;3.53;;
57752;SDS011;43583;53.132;6.574;2023-11-19T07:52:32;23.70;;;3.95;;
57752;SDS011;43583;53.132;6.574;2023-11-19T07:54:57;25.67;;;2.58;;
57752;SDS011;43583;53.132;6.574;2023-11-19T07:57:23;18.02;;;3.17;;
57752;SDS011;43583;53.132;6.574;2023-11-19T07:59:49;26.25;;;2.78;;
57752;SDS011;43583;53.132;6.574;2023-11-19T08:02:15;26.90;;;2.88;;
57752;SDS011;43583;53.132;6.574;2023-11-19T08:04:40;29.08;;;3.20;;
57752;SDS011;43583;53.132;6.574;2023-11-19T08:07:10;24.30;;;2.20;;
57752;SDS011;43583;53.132;6.574;2023-11-19T08:09:36;28.23;;;2.47;;
57752;SDS011;43583;53.132;6.574;2023-11-19T08:12:02;26.08;;;2.92;;
57752;SDS011;43583;53.132;6.574;2023-11-19T08:14:28;25.83;;;3.15;;
57752;SDS011;43583;53.132;6.574;2023-11-19T08:16:54;28.23;;;4.35;;
57752;SDS011;43583;53.132;6.574;2023-11-19T08:19:19;23.13;;;2.50;;
57752;SDS011;43583;53.132;6.574;2023-11-19T08:21:45;28.80;;;4.38;;
57752;SDS011;43583;53.132;6.574;2023-11-19T08:24:11;21.63;;;3.15;;
57752;SDS011;43583;53.132;6.574;2023-11-19T08:26:36;26.27;;;3.45;;
57752;SDS011;43583;53.132;6.574;2023-11-19T08:29:02;20.55;;;2.92;;
57752;SDS011;43583;53.132;6.574;2023-11-19T08:31:28;24.05;;;1.88;;
57752;SDS011;43583;53.132;6.574;2023-11-19T08:33:53;25.10;;;3.83;;
57752;SDS011;43583;53.132;6.574;2023-11-19T08:36:19;16.88;;;2.33;;
57752;SDS011;43583;53.132;6.574;2023-11-19T08:38:45;17.80;;;2.30;;
57752;SDS011;43583;53.132;6.574;2023-11-19T08:41:11;29.35;;;3.08;;
57752;SDS011;43583;53.132;6.574;2023-11-19T08:43:37;22.20;;;2.72;;
57752;SDS011;43583;53.132;6.574;2023-11-19T08:46:04;18.73;;;2.67;;
57752;SDS011;43583;53.132;6.574;2023-11-19T08:48:35;21.35;;;3.00;;
57752;SDS011;43583;53.132;6.574;2023-11-19T08:51:00;28.80;;;2.63;;
57752;SDS011;43583;53.132;6.574;2023-11-19T08:53:26;15.82;;;2.22;;
57752;SDS011;43583;53.132;6.574;2023-11-19T08:55:51;22.40;;;3.05;;
57752;SDS011;43583;53.132;6.574;2023-11-19T08:58:17;18.33;;;3.90;;
57752;SDS011;43583;53.132;6.574;2023-11-19T09:00:43;21.52;;;1.83;;
57752;SDS011;43583;53.132;6.574;2023-11-19T09:03:09;20.88;;;2.80;;
57752;SDS011;43583;53.132;6.574;2023-11-19T09:05:34;27.23;;;3.58;;
57752;SDS011;43583;53.132;6.574;2023-11-19T09:08:00;26.90;;;2.45;;
57752;SDS011;43583;53.132;6.574;2023-11-19T09:10:25;14.82;;;2.17;;
57752;SDS011;43583;53.132;6.574;2023-11-19T09:12:52;27.10;;;4.22;;
57752;SDS011;43583;53.132;6.574;2023-11-19T09:15:17;21.85;;;2.58;;
57752;SDS011;43583;53.132;6.574;2023-11-19T09:17:43;24.08;;;2.80;;
57752;SDS011;43583;53.132;6.574;2023-11-19T09:20:09;26.52;;;2.97;;
57752;SDS011;43583;53.132;6.574;2023-11-19T09:22:37;25.77;;;2.17;;
57752;SDS011;43583;53.132;6.574;2023-11-19T09:25:03;28.75;;;3.05;;
57752;SDS011;43583;53.132;6.574;2023-11-19T09:27:30;36.28;;;3.38;;
57752;SDS011;43583;53.132;6.574;2023-11-19T09:29:55;24.92;;;3.63;;
57752;SDS011;43583;53.132;6.574;2023-11-19T09:32:23;17.83;;;2.10;;
57752;SDS011;43583;53.132;6.574;2023-11-19T09:34:49;28.08;;;2.22;;
57752;SDS011;43583;53.132;6.574;2023-11-19T09:37:14;17.98;;;2.25;;
57752;SDS011;43583;53.132;6.574;2023-11-19T09:39:40;21.05;;;2.45;;
57752;SDS011;43583;53.132;6.574;2023-11-19T09:42:08;19.63;;;2.17;;
57752;SDS011;43583;53.132;6.574;2023-11-19T09:44:34;18.95;;;3.38;;
57752;SDS011;43583;53.132;6.574;2023-11-19T09:47:02;16.58;;;2.72;;
57752;SDS011;43583;53.132;6.574;2023-11-19T09:49:28;16.45;;;1.70;;
57752;SDS011;43583;53.132;6.574;2023-11-19T09:51:55;26.33;;;1.75;;
57752;SDS011;43583;53.132;6.574;2023-11-19T09:54:21;28.92;;;3.25;;
57752;SDS011;43583;53.132;6.574;2023-11-19T09:56:46;23.02;;;2.95;;
57752;SDS011;43583;53.132;6.574;2023-11-19T09:59:13;25.40;;;2.30;;
57752;SDS011;43583;53.132;6.574;2023-11-19T10:01:39;28.75;;;3.80;;
57752;SDS011;43583;53.132;6.574;2023-11-19T10:04:05;23.85;;;2.78;;
57752;SDS011;43583;53.132;6.574;2023-11-19T10:06:32;20.30;;;2.45;;
57752;SDS011;43583;53.132;6.574;2023-11-19T10:08:58;24.13;;;2.65;;
57752;SDS011;43583;53.132;6.574;2023-11-19T10:11:24;16.38;;;2.10;;
57752;SDS011;43583;53.132;6.574;2023-11-19T10:13:51;21.98;;;2.45;;
57752;SDS011;43583;53.132;6.574;2023-11-19T10:16:18;23.27;;;3.10;;
57752;SDS011;43583;53.132;6.574;2023-11-19T10:18:45;20.85;;;2.90;;
57752;SDS011;43583;53.132;6.574;2023-11-19T10:21:12;23.30;;;3.00;;
57752;SDS011;43583;53.132;6.574;2023-11-19T10:23:51;22.55;;;2.75;;
57752;SDS011;43583;53.132;6.574;2023-11-19T10:26:19;23.73;;;2.58;;
57752;SDS011;43583;53.132;6.574;2023-11-19T10:28:48;25.58;;;3.08;;
57752;SDS011;43583;53.132;6.574;2023-11-19T10:31:15;15.70;;;2.10;;
57752;SDS011;43583;53.132;6.574;2023-11-19T10:33:42;19.25;;;1.85;;
57752;SDS011;43583;53.132;6.574;2023-11-19T10:36:10;29.40;;;3.15;;
57752;SDS011;43583;53.132;6.574;2023-11-19T10:38:37;24.85;;;4.10;;
57752;SDS011;43583;53.132;6.574;2023-11-19T10:41:03;17.27;;;2.35;;
57752;SDS011;43583;53.132;6.574;2023-11-19T10:43:30;22.50;;;1.95;;
57752;SDS011;43583;53.132;6.574;2023-11-19T10:46:08;22.35;;;3.38;;
57752;SDS011;43583;53.132;6.574;2023-11-19T10:48:35;18.40;;;2.58;;
57752;SDS011;43583;53.132;6.574;2023-11-19T10:51:01;13.95;;;1.55;;
57752;SDS011;43583;53.132;6.574;2023-11-19T10:53:33;25.55;;;2.53;;
57752;SDS011;43583;53.132;6.574;2023-11-19T10:56:01;23.55;;;2.78;;
57752;SDS011;43583;53.132;6.574;2023-11-19T10:58:29;22.10;;;1.75;;
57752;SDS011;43583;53.132;6.574;2023-11-19T11:00:57;27.45;;;2.88;;
57752;SDS011;43583;53.132;6.574;2023-11-19T11:03:31;25.30;;;2.95;;
57752;SDS011;43583;53.132;6.574;2023-11-19T11:06:04;21.95;;;3.13;;
57752;SDS011;43583;53.132;6.574;2023-11-19T11:08:31;23.23;;;2.75;;
57752;SDS011;43583;53.132;6.574;2023-11-19T11:10:56;17.38;;;1.77;;
57752;SDS011;43583;53.132;6.574;2023-11-19T11:13:23;23.42;;;4.55;;
57752;SDS011;43583;53.132;6.574;2023-11-19T11:15:50;21.77;;;1.73;;
57752;SDS011;43583;53.132;6.574;2023-11-19T11:18:16;14.02;;;2.45;;
57752;SDS011;43583;53.132;6.574;2023-11-19T11:20:46;27.17;;;3.67;;
57752;SDS011;43583;53.132;6.574;2023-11-19T11:28:58;25.27;;;4.03;;
57752;SDS011;43583;53.132;6.574;2023-11-19T11:40:00;19.17;;;2.90;;
57752;SDS011;43583;53.132;6.574;2023-11-19T11:42:36;21.48;;;2.60;;
57752;SDS011;43583;53.132;6.574;2023-11-19T11:45:03;22.85;;;2.10;;
57752;SDS011;43583;53.132;6.574;2023-11-19T11:50:08;28.73;;;2.40;;
57752;SDS011;43583;53.132;6.574;2023-11-19T11:53:12;20.48;;;2.70;;
57752;SDS011;43583;53.132;6.574;2023-11-19T11:55:33;18.10;;;2.25;;
57752;SDS011;43583;53.132;6.574;2023-11-19T11:58:05;19.55;;;2.50;;
57752;SDS011;43583;53.132;6.574;2023-11-19T12:00:37;22.63;;;2.10;;
57752;SDS011;43583;53.132;6.574;2023-11-19T12:03:05;17.00;;;2.43;;
57752;SDS011;43583;53.132;6.574;2023-11-19T12:05:31;23.75;;;4.57;;
57752;SDS011;43583;53.132;6.574;2023-11-19T12:08:05;15.48;;;2.35;;
57752;SDS011;43583;53.132;6.574;2023-11-19T12:10:37;24.88;;;2.60;;
57752;SDS011;43583;53.132;6.574;2023-11-19T12:13:09;23.92;;;3.00;;
57752;SDS011;43583;53.132;6.574;2023-11-19T12:18:31;14.93;;;1.77;;
57752;SDS011;43583;53.132;6.574;2023-11-19T12:20:57;15.10;;;2.28;;
57752;SDS011;43583;53.132;6.574;2023-11-19T12:23:28;23.25;;;2.63;;
57752;SDS011;43583;53.132;6.574;2023-11-19T12:25:54;26.42;;;3.08;;
57752;SDS011;43583;53.132;6.574;2023-11-19T12:28:21;17.83;;;1.83;;
57752;SDS011;43583;53.132;6.574;2023-11-19T12:30:47;20.70;;;2.25;;
57752;SDS011;43583;53.132;6.574;2023-11-19T12:33:13;16.60;;;1.80;;
57752;SDS011;43583;53.132;6.574;2023-11-19T12:38:05;15.57;;;2.08;;
57752;SDS011;43583;53.132;6.574;2023-11-19T12:40:31;18.17;;;2.60;;
57752;SDS011;43583;53.132;6.574;2023-11-19T12:42:57;17.00;;;2.58;;
57752;SDS011;43583;53.132;6.574;2023-11-19T12:45:24;15.77;;;1.67;;
57752;SDS011;43583;53.132;6.574;2023-11-19T12:47:50;14.80;;;2.20;;
57752;SDS011;43583;53.132;6.574;2023-11-19T12:53:24;20.83;;;3.20;;
57752;SDS011;43583;53.132;6.574;2023-11-19T12:55:51;18.02;;;2.58;;
57752;SDS011;43583;53.132;6.574;2023-11-19T12:58:30;17.08;;;2.65;;
57752;SDS011;43583;53.132;6.574;2023-11-19T13:01:04;15.35;;;1.67;;
57752;SDS011;43583;53.132;6.574;2023-11-19T13:03:31;15.57;;;2.17;;
57752;SDS011;43583;53.132;6.574;2023-11-19T13:06:04;19.60;;;1.58;;
57752;SDS011;43583;53.132;6.574;2023-11-19T13:08:39;12.65;;;1.33;;
57752;SDS011;43583;53.132;6.574;2023-11-19T13:11:06;13.55;;;1.77;;
57752;SDS011;43583;53.132;6.574;2023-11-19T13:13:33;26.13;;;2.05;;
57752;SDS011;43583;53.132;6.574;2023-11-19T13:16:19;19.98;;;1.80;;
57752;SDS011;43583;53.132;6.574;2023-11-19T13:18:44;19.98;;;1.60;;
57752;SDS011;43583;53.132;6.574;2023-11-19T13:21:10;17.48;;;1.80;;
57752;SDS011;43583;53.132;6.574;2023-11-19T13:23:38;21.40;;;2.63;;
57752;SDS011;43583;53.132;6.574;2023-11-19T13:26:03;12.45;;;1.45;;
57752;SDS011;43583;53.132;6.574;2023-11-19T13:28:29;16.33;;;2.28;;
57752;SDS011;43583;53.132;6.574;2023-11-19T13:30:56;20.20;;;2.28;;
57752;SDS011;43583;53.132;6.574;2023-11-19T13:33:21;16.67;;;2.60;;
57752;SDS011;43583;53.132;6.574;2023-11-19T13:35:47;17.90;;;1.30;;
57752;SDS011;43583;53.132;6.574;2023-11-19T13:38:12;15.18;;;1.42;;
57752;SDS011;43583;53.132;6.574;2023-11-19T13:40:38;12.68;;;1.23;;
57752;SDS011;43583;53.132;6.574;2023-11-19T13:43:04;15.73;;;1.88;;
57752;SDS011;43583;53.132;6.574;2023-11-19T13:45:30;13.10;;;2.35;;
57752;SDS011;43583;53.132;6.574;2023-11-19T13:47:55;13.13;;;1.85;;
57752;SDS011;43583;53.132;6.574;2023-11-19T13:50:21;27.73;;;2.95;;
57752;SDS011;43583;53.132;6.574;2023-11-19T13:52:48;20.60;;;2.50;;
57752;SDS011;43583;53.132;6.574;2023-11-19T13:55:13;11.15;;;1.33;;
57752;SDS011;43583;53.132;6.574;2023-11-19T13:57:40;19.67;;;2.83;;
57752;SDS011;43583;53.132;6.574;2023-11-19T14:00:10;13.45;;;1.80;;
57752;SDS011;43583;53.132;6.574;2023-11-19T14:02:38;15.10;;;1.65;;
57752;SDS011;43583;53.132;6.574;2023-11-19T14:05:05;18.23;;;1.85;;
57752;SDS011;43583;53.132;6.574;2023-11-19T14:07:32;15.38;;;2.28;;
57752;SDS011;43583;53.132;6.574;2023-11-19T14:09:58;19.88;;;3.42;;
57752;SDS011;43583;53.132;6.574;2023-11-19T14:12:23;13.75;;;1.83;;
57752;SDS011;43583;53.132;6.574;2023-11-19T14:14:49;13.55;;;1.85;;
57752;SDS011;43583;53.132;6.574;2023-11-19T14:17:15;17.33;;;1.58;;
57752;SDS011;43583;53.132;6.574;2023-11-19T14:19:41;11.32;;;1.58;;
57752;SDS011;43583;53.132;6.574;2023-11-19T14:22:07;19.63;;;3.05;;
57752;SDS011;43583;53.132;6.574;2023-11-19T14:24:36;15.65;;;2.08;;
57752;SDS011;43583;53.132;6.574;2023-11-19T14:27:02;26.48;;;2.70;;
57752;SDS011;43583;53.132;6.574;2023-11-19T14:29:28;15.85;;;1.45;;
57752;SDS011;43583;53.132;6.574;2023-11-19T14:31:55;11.18;;;1.92;;
57752;SDS011;43583;53.132;6.574;2023-11-19T14:34:21;12.77;;;1.98;;
57752;SDS011;43583;53.132;6.574;2023-11-19T14:36:47;12.88;;;2.05;;
57752;SDS011;43583;53.132;6.574;2023-11-19T14:39:13;12.45;;;1.30;;
57752;SDS011;43583;53.132;6.574;2023-11-19T14:41:38;15.40;;;1.73;;
57752;SDS011;43583;53.132;6.574;2023-11-19T14:44:04;12.57;;;1.30;;
57752;SDS011;43583;53.132;6.574;2023-11-19T14:46:30;20.13;;;1.98;;
57752;SDS011;43583;53.132;6.574;2023-11-19T14:48:56;13.13;;;1.05;;
57752;SDS011;43583;53.132;6.574;2023-11-19T14:51:22;15.23;;;2.50;;
57752;SDS011;43583;53.132;6.574;2023-11-19T14:53:47;18.77;;;1.60;;
57752;SDS011;43583;53.132;6.574;2023-11-19T14:56:13;20.40;;;1.90;;
57752;SDS011;43583;53.132;6.574;2023-11-19T14:58:39;18.02;;;2.22;;